Time;durP1;ratioP1;P1;durP2;ratioP2;P2;SDS_P1;SDS_P2;PMS_P1;PMS_P2;Temp;Humidity;BMP_temperature;BMP_pressure;BME280_temperature;BME280_humidity;BME280_pressure;Samples;Min_cycle;Max_cycle;Signal;HPM_P1;HPM_P2
2022/06/16 00:00:29;;;;;;;;;14.40;14.40;;;;;;;;4978069;28;8811;-71
2022/06/16 00:02:55;;;;;;;;;16.40;14.80;;;;;;;;4978842;28;8894;-66
2022/06/16 00:05:23;;;;;;;;;14.80;12.40;;;;;;;;4961167;28;8803;-65
2022/06/16 00:07:49;;;;;;;;;19.60;18.00;;;;;;;;4961568;28;8768;-70
2022/06/16 00:10:16;;;;;;;;;14.80;13.80;;;;;;;;4979365;28;9433;-66
2022/06/16 00:12:43;;;;;;;;;20.40;16.00;;;;;;;;4961422;28;8837;-70
2022/06/16 00:15:10;;;;;;;;;14.60;13.40;;;;;;;;4961138;28;8779;-68
2022/06/16 00:17:37;;;;;;;;;13.80;11.80;;;;;;;;4976858;28;8803;-69
2022/06/16 00:20:07;;;;;;;;;15.40;15.40;;;;;;;;4978054;28;8803;-69
2022/06/16 00:22:34;;;;;;;;;14.60;12.00;;;;;;;;4981749;28;8841;-63
2022/06/16 00:25:01;;;;;;;;;13.00;11.80;;;;;;;;4983441;28;8767;-70
2022/06/16 00:27:27;;;;;;;;;15.00;12.20;;;;;;;;4981082;28;9441;-67
2022/06/16 00:29:54;;;;;;;;;12.00;10.00;;;;;;;;4981945;28;8791;-68
2022/06/16 00:32:21;;;;;;;;;17.40;14.00;;;;;;;;4981367;28;8873;-66
2022/06/16 00:34:48;;;;;;;;;17.60;15.20;;;;;;;;4982193;28;9486;-69
2022/06/16 00:37:15;;;;;;;;;21.40;15.80;;;;;;;;4964099;28;9416;-69
2022/06/16 00:39:42;;;;;;;;;21.25;18.50;;;;;;;;4980608;28;8915;-65
2022/06/16 00:42:12;;;;;;;;;18.40;17.40;;;;;;;;4980225;28;8791;-70
2022/06/16 00:44:40;;;;;;;;;21.40;18.40;;;;;;;;4963378;28;8795;-62
2022/06/16 00:47:07;;;;;;;;;15.60;14.80;;;;;;;;4963156;28;8779;-62
2022/06/16 00:49:33;;;;;;;;;18.20;15.00;;;;;;;;4980699;28;8764;-68
2022/06/16 00:52:02;;;;;;;;;17.00;14.40;;;;;;;;4980851;28;8895;-68
2022/06/16 00:54:30;;;;;;;;;18.00;14.80;;;;;;;;4979688;28;8780;-68
2022/06/16 00:56:58;;;;;;;;;17.20;15.40;;;;;;;;4950343;29;8841;-68
2022/06/16 00:59:24;;;;;;;;;17.00;15.40;;;;;;;;4956257;28;8844;-68
2022/06/16 01:01:51;;;;;;;;;22.80;15.60;;;;;;;;4942545;28;8780;-68
2022/06/16 01:07:04;;;;;;;;;18.80;14.60;;;;;;;;4942402;29;8781;-67
2022/06/16 01:09:31;;;;;;;;;14.60;13.80;;;;;;;;4940961;29;8977;-69
2022/06/16 01:14:45;;;;;;;;;13.00;12.20;;;;;;;;4942027;28;8793;-69
2022/06/16 01:17:15;;;;;;;;;15.00;13.00;;;;;;;;4941903;28;8790;-68
2022/06/16 01:19:47;;;;;;;;;17.80;15.40;;;;;;;;4955946;28;8824;-66
2022/06/16 01:22:16;;;;;;;;;13.40;13.40;;;;;;;;4941349;29;8798;-71
2022/06/16 01:25:01;;;;;;;;;13.80;13.20;;;;;;;;4941987;28;8797;-61
2022/06/16 01:27:28;;;;;;;;;15.80;14.00;;;;;;;;4940590;28;8844;-67
2022/06/16 01:30:08;;;;;;;;;15.60;12.00;;;;;;;;4941521;28;8777;-69
2022/06/16 01:32:58;;;;;;;;;14.60;13.00;;;;;;;;4955429;28;8777;-68
2022/06/16 01:35:34;;;;;;;;;15.80;14.60;;;;;;;;4941078;28;8777;-69
2022/06/16 01:38:10;;;;;;;;;18.80;15.40;;;;;;;;4940314;28;8796;-66
2022/06/16 01:40:38;;;;;;;;;17.20;15.00;;;;;;;;4941507;28;8833;-65
2022/06/16 01:43:08;;;;;;;;;17.20;14.20;;;;;;;;4941069;28;8794;-71
2022/06/16 01:46:03;;;;;;;;;17.00;14.40;;;;;;;;4940875;28;8797;-65
2022/06/16 01:48:30;;;;;;;;;16.80;15.20;;;;;;;;4940952;28;8785;-71
2022/06/16 01:51:01;;;;;;;;;15.60;13.80;;;;;;;;4939497;29;8836;-72
2022/06/16 01:53:38;;;;;;;;;17.00;13.20;;;;;;;;4941438;28;8785;-62
2022/06/16 01:56:10;;;;;;;;;16.40;14.40;;;;;;;;4960199;28;8816;-69
2022/06/16 01:58:37;;;;;;;;;9.40;9.40;;;;;;;;4979462;28;8787;-72
2022/06/16 02:01:05;;;;;;;;;15.00;14.20;;;;;;;;4962472;28;9521;-69
2022/06/16 02:03:33;;;;;;;;;14.60;14.60;;;;;;;;4979267;28;8861;-64
2022/06/16 02:06:01;;;;;;;;;25.40;16.80;;;;;;;;4962215;28;8811;-70
2022/06/16 02:08:35;;;;;;;;;17.60;16.00;;;;;;;;4962113;28;8794;-70
2022/06/16 02:11:25;;;;;;;;;15.60;13.20;;;;;;;;4962117;28;8783;-66
2022/06/16 02:13:57;;;;;;;;;18.40;14.60;;;;;;;;4968866;28;8751;-72
2022/06/16 02:16:25;;;;;;;;;17.60;15.60;;;;;;;;4961080;28;8803;-68
2022/06/16 02:18:52;;;;;;;;;15.50;14.00;;;;;;;;4962281;28;9763;-65
2022/06/16 02:21:21;;;;;;;;;19.25;17.00;;;;;;;;4977791;28;8811;-67
2022/06/16 02:23:48;;;;;;;;;19.80;17.60;;;;;;;;4969657;28;8787;-65
2022/06/16 02:26:17;;;;;;;;;16.60;15.20;;;;;;;;4979241;28;9400;-68
2022/06/16 02:28:47;;;;;;;;;20.60;14.60;;;;;;;;4977907;28;8868;-68
2022/06/16 02:31:17;;;;;;;;;21.00;16.00;;;;;;;;4958475;28;8884;-65
2022/06/16 02:33:48;;;;;;;;;19.50;18.25;;;;;;;;4958685;28;8790;-69
2022/06/16 02:36:28;;;;;;;;;19.60;19.00;;;;;;;;4959189;28;8765;-65
2022/06/16 02:39:01;;;;;;;;;23.00;19.00;;;;;;;;4957072;28;8786;-68
2022/06/16 02:41:32;;;;;;;;;17.80;16.40;;;;;;;;4958334;28;8770;-64
2022/06/16 02:43:58;;;;;;;;;21.25;21.00;;;;;;;;4957911;28;8805;-68
2022/06/16 02:46:29;;;;;;;;;21.50;19.00;;;;;;;;4976684;28;8898;-63
2022/06/16 02:49:19;;;;;;;;;24.25;22.25;;;;;;;;4976761;28;8751;-65
2022/06/16 02:51:46;;;;;;;;;21.75;18.00;;;;;;;;4968488;28;8791;-68
2022/06/16 02:54:20;;;;;;;;;22.50;21.50;;;;;;;;4967698;28;8785;-67
2022/06/16 02:56:59;;;;;;;;;20.50;19.50;;;;;;;;4977663;28;8808;-67
2022/06/16 02:59:37;;;;;;;;;17.50;16.00;;;;;;;;4978481;28;8857;-68
2022/06/16 03:02:05;;;;;;;;;24.75;20.00;;;;;;;;4961451;28;10620;-67
2022/06/16 03:04:34;;;;;;;;;19.50;18.50;;;;;;;;4961204;28;8807;-67
2022/06/16 03:07:00;;;;;;;;;20.50;19.00;;;;;;;;4978870;28;8775;-66
2022/06/16 03:09:27;;;;;;;;;19.75;18.50;;;;;;;;4960410;28;8794;-69
2022/06/16 03:11:53;;;;;;;;;26.20;20.80;;;;;;;;4978051;28;8776;-64
2022/06/16 03:14:20;;;;;;;;;19.75;18.25;;;;;;;;4960796;28;8787;-69
2022/06/16 03:16:47;;;;;;;;;19.00;19.00;;;;;;;;4978845;28;8772;-71
2022/06/16 03:19:13;;;;;;;;;21.00;17.00;;;;;;;;4979340;28;8811;-69
2022/06/16 03:21:40;;;;;;;;;20.40;16.00;;;;;;;;4978376;28;8783;-66
2022/06/16 03:24:07;;;;;;;;;17.40;16.60;;;;;;;;4978797;28;8771;-68
2022/06/16 03:26:33;;;;;;;;;17.20;15.00;;;;;;;;4978080;28;8771;-68
2022/06/16 03:29:00;;;;;;;;;20.50;18.50;;;;;;;;4960733;28;8921;-68
2022/06/16 03:31:27;;;;;;;;;18.60;16.40;;;;;;;;4976331;28;8921;-62
2022/06/16 03:33:54;;;;;;;;;22.25;17.00;;;;;;;;4961958;28;8772;-72
2022/06/16 03:36:21;;;;;;;;;17.80;14.40;;;;;;;;4977980;28;8858;-70
2022/06/16 03:38:48;;;;;;;;;17.40;16.00;;;;;;;;4976611;28;8795;-63
2022/06/16 03:41:14;;;;;;;;;14.00;12.00;;;;;;;;4977112;28;8795;-69
2022/06/16 03:43:41;;;;;;;;;17.60;15.20;;;;;;;;4960782;28;8784;-71
2022/06/16 03:46:08;;;;;;;;;15.20;13.40;;;;;;;;4978582;28;8918;-63
2022/06/16 03:48:34;;;;;;;;;15.40;13.80;;;;;;;;4977790;28;9115;-63
2022/06/16 03:51:01;;;;;;;;;10.80;9.40;;;;;;;;4960689;28;8865;-70
2022/06/16 03:53:28;;;;;;;;;11.60;11.60;;;;;;;;4960317;28;8858;-65
2022/06/16 03:55:54;;;;;;;;;13.40;13.00;;;;;;;;4959925;28;8795;-62
2022/06/16 03:58:21;;;;;;;;;13.20;11.80;;;;;;;;4977769;28;8862;-70
2022/06/16 04:00:48;;;;;;;;;14.40;13.40;;;;;;;;4977754;28;8819;-65
2022/06/16 04:05:59;;;;;;;;;11.40;7.60;;;;;;;;4976916;28;8799;-64
2022/06/16 04:08:26;;;;;;;;;11.40;9.40;;;;;;;;4959413;28;9139;-64
2022/06/16 04:10:53;;;;;;;;;15.00;15.00;;;;;;;;4960235;28;8764;-64
2022/06/16 04:13:20;;;;;;;;;12.80;11.40;;;;;;;;4960581;28;8799;-63
2022/06/16 04:15:47;;;;;;;;;14.75;14.25;;;;;;;;4960260;28;8792;-64
2022/06/16 04:18:13;;;;;;;;;15.75;13.50;;;;;;;;4976001;28;8767;-64
2022/06/16 04:20:40;;;;;;;;;17.40;14.20;;;;;;;;4977162;28;8803;-64
2022/06/16 04:23:10;;;;;;;;;15.00;14.00;;;;;;;;4977532;28;8819;-64
2022/06/16 04:25:37;;;;;;;;;15.00;12.50;;;;;;;;4977465;28;8810;-64
2022/06/16 04:28:04;;;;;;;;;16.40;14.20;;;;;;;;4978620;28;8791;-65
2022/06/16 05:38:45;;;;;;;;;11.20;9.80;;;;;;;;4937845;28;8787;-64
2022/06/16 05:41:13;;;;;;;;;11.40;9.00;;;;;;;;4963002;28;8830;-65
2022/06/16 05:43:40;;;;;;;;;7.80;6.20;;;;;;;;4962699;28;8796;-64
2022/06/16 05:46:07;;;;;;;;;12.20;8.80;;;;;;;;4980544;28;9546;-65
2022/06/16 05:48:34;;;;;;;;;14.60;9.60;;;;;;;;4979183;28;8799;-64
2022/06/16 05:51:04;;;;;;;;;11.40;9.60;;;;;;;;4980090;28;8795;-64
2022/06/16 05:53:31;;;;;;;;;12.20;12.20;;;;;;;;4979927;28;8875;-64
2022/06/16 05:55:58;;;;;;;;;13.40;8.40;;;;;;;;4962457;28;8775;-65
2022/06/16 05:58:24;;;;;;;;;11.00;10.80;;;;;;;;4979632;28;8826;-56
2022/06/16 06:00:51;;;;;;;;;13.00;12.20;;;;;;;;4962266;28;8818;-64
2022/06/16 06:03:18;;;;;;;;;16.80;13.20;;;;;;;;4979406;28;9035;-63
2022/06/16 06:05:44;;;;;;;;;14.20;12.20;;;;;;;;4979279;28;8788;-64
2022/06/16 06:16:25;;;;;;;;;9.20;7.60;;;;;;;;4978899;28;8771;-63
2022/06/16 06:18:58;;;;;;;;;5.60;4.60;;;;;;;;4962158;28;8771;-64
2022/06/16 06:24:11;;;;;;;;;9.20;9.00;;;;;;;;4979000;28;8775;-63
2022/06/16 06:26:37;;;;;;;;;14.40;11.60;;;;;;;;4962023;28;8926;-64
2022/06/16 06:29:04;;;;;;;;;13.00;13.00;;;;;;;;4961649;28;8877;-64
2022/06/16 06:31:30;;;;;;;;;18.20;12.00;;;;;;;;4961606;28;8776;-63
2022/06/16 06:33:57;;;;;;;;;10.40;9.20;;;;;;;;4978379;28;8784;-64
2022/06/16 06:36:24;;;;;;;;;10.00;10.00;;;;;;;;4978742;28;8810;-63
2022/06/16 06:38:50;;;;;;;;;16.80;12.60;;;;;;;;4978796;28;8797;-66
2022/06/16 06:41:17;;;;;;;;;13.20;11.80;;;;;;;;4978774;28;8780;-65
2022/06/16 06:43:44;;;;;;;;;12.20;12.20;;;;;;;;4979008;28;8768;-64
2022/06/16 06:46:11;;;;;;;;;10.00;9.00;;;;;;;;4979111;28;9451;-64
2022/06/16 06:48:38;;;;;;;;;17.60;14.80;;;;;;;;4978345;28;8787;-64
2022/06/16 06:51:04;;;;;;;;;18.40;14.60;;;;;;;;4961321;28;8829;-66
2022/06/16 06:53:31;;;;;;;;;12.80;11.40;;;;;;;;4978145;28;8783;-66
2022/06/16 06:55:58;;;;;;;;;18.60;16.20;;;;;;;;4978045;28;8775;-64
2022/06/16 06:58:24;;;;;;;;;15.80;14.20;;;;;;;;4961211;28;8806;-62
2022/06/16 07:00:53;;;;;;;;;16.20;15.00;;;;;;;;4979327;28;8894;-64
2022/06/16 07:03:20;;;;;;;;;18.00;16.00;;;;;;;;4978283;28;8799;-64
2022/06/16 07:05:47;;;;;;;;;18.80;14.60;;;;;;;;4978817;28;8853;-64
2022/06/16 07:08:14;;;;;;;;;20.60;16.20;;;;;;;;4961860;28;8886;-64
2022/06/16 07:10:41;;;;;;;;;15.00;13.20;;;;;;;;4961193;28;9486;-64
2022/06/16 07:13:07;;;;;;;;;13.40;13.20;;;;;;;;4979947;28;8809;-64
2022/06/16 07:15:34;;;;;;;;;17.80;12.40;;;;;;;;4978671;28;8843;-64
2022/06/16 07:18:03;;;;;;;;;16.60;16.60;;;;;;;;4962160;28;8810;-64
2022/06/16 07:20:30;;;;;;;;;17.40;15.20;;;;;;;;4979062;28;9428;-64
2022/06/16 07:22:57;;;;;;;;;19.40;15.60;;;;;;;;4978788;28;8781;-64
2022/06/16 07:25:23;;;;;;;;;17.20;12.80;;;;;;;;4979541;28;8850;-64
2022/06/16 07:27:53;;;;;;;;;19.00;18.80;;;;;;;;4979856;28;8890;-64
2022/06/16 07:30:20;;;;;;;;;16.60;14.80;;;;;;;;4977835;28;8816;-64
2022/06/16 07:32:47;;;;;;;;;18.40;16.00;;;;;;;;4962211;28;8856;-64
2022/06/16 07:35:14;;;;;;;;;17.20;14.00;;;;;;;;4961990;28;8783;-64
2022/06/16 07:37:41;;;;;;;;;16.40;16.00;;;;;;;;4967461;28;8801;-64
2022/06/16 07:40:08;;;;;;;;;19.20;15.80;;;;;;;;4939233;29;8794;-64
2022/06/16 07:42:35;;;;;;;;;20.40;15.40;;;;;;;;4938334;29;8766;-64
2022/06/16 07:45:01;;;;;;;;;20.40;18.60;;;;;;;;4939880;28;8888;-64
2022/06/16 07:47:28;;;;;;;;;18.80;16.40;;;;;;;;4939667;28;8785;-64
2022/06/16 07:49:55;;;;;;;;;19.60;15.60;;;;;;;;4938618;29;8775;-64
2022/06/16 07:52:22;;;;;;;;;17.00;16.60;;;;;;;;4940320;29;8781;-64
2022/06/16 07:54:49;;;;;;;;;22.80;18.20;;;;;;;;4939752;28;8797;-64
2022/06/16 07:57:16;;;;;;;;;23.00;18.00;;;;;;;;4939868;28;8782;-64
2022/06/16 07:59:48;;;;;;;;;18.40;16.20;;;;;;;;4939652;28;8825;-64
2022/06/16 08:02:14;;;;;;;;;22.00;18.20;;;;;;;;4939566;28;8801;-64
2022/06/16 08:04:41;;;;;;;;;16.00;15.40;;;;;;;;4939777;28;8806;-64
2022/06/16 08:07:08;;;;;;;;;17.00;16.80;;;;;;;;4939940;29;8762;-65
2022/06/16 08:09:35;;;;;;;;;19.20;16.00;;;;;;;;4937669;28;9470;-64
2022/06/16 08:12:04;;;;;;;;;18.20;15.60;;;;;;;;4939238;28;8789;-64
2022/06/16 08:14:31;;;;;;;;;56.25;36.50;;;;;;;;4939593;28;8778;-64
2022/06/16 08:16:58;;;;;;;;;47.75;33.25;;;;;;;;4939390;28;9559;-65
2022/06/16 08:19:25;;;;;;;;;28.00;24.75;;;;;;;;4938766;28;8821;-63
2022/06/16 08:21:52;;;;;;;;;20.60;19.00;;;;;;;;4939692;29;8800;-64
2022/06/16 08:24:18;;;;;;;;;19.40;17.20;;;;;;;;4938217;28;9014;-63
2022/06/16 08:26:45;;;;;;;;;27.80;20.80;;;;;;;;4939404;28;8781;-64
2022/06/16 08:29:13;;;;;;;;;18.00;16.60;;;;;;;;4937940;29;8785;-64
2022/06/16 08:31:40;;;;;;;;;22.60;18.60;;;;;;;;4953815;28;8777;-64
2022/06/16 08:34:06;;;;;;;;;18.40;16.20;;;;;;;;4939970;29;8901;-64
2022/06/16 08:36:33;;;;;;;;;14.80;13.40;;;;;;;;4938781;28;8778;-65
2022/06/16 08:39:00;;;;;;;;;17.60;15.60;;;;;;;;4972732;28;8788;-64
2022/06/16 08:41:29;;;;;;;;;14.40;13.20;;;;;;;;4978876;28;8838;-64
2022/06/16 08:44:09;;;;;;;;;12.60;12.60;;;;;;;;4981096;28;8785;-64
2022/06/16 08:47:02;;;;;;;;;17.80;14.60;;;;;;;;4963761;28;8787;-64
2022/06/16 08:49:31;;;;;;;;;16.60;13.60;;;;;;;;4978008;28;8869;-63
2022/06/16 08:52:16;;;;;;;;;19.40;16.60;;;;;;;;4964928;28;8791;-64
2022/06/16 08:54:45;;;;;;;;;20.00;15.00;;;;;;;;4981390;28;8898;-64
2022/06/16 08:57:18;;;;;;;;;17.60;14.00;;;;;;;;4964192;28;8744;-65
2022/06/16 08:59:50;;;;;;;;;13.00;12.00;;;;;;;;4981051;28;8820;-65
2022/06/16 09:02:20;;;;;;;;;16.40;13.60;;;;;;;;4963808;28;8787;-63
2022/06/16 09:04:50;;;;;;;;;15.20;11.80;;;;;;;;4981189;28;8834;-64
2022/06/16 09:07:24;;;;;;;;;14.60;13.00;;;;;;;;4981644;28;8787;-64
2022/06/16 09:10:17;;;;;;;;;15.00;11.80;;;;;;;;4980351;28;8772;-64
2022/06/16 09:12:59;;;;;;;;;16.60;12.00;;;;;;;;4978086;28;8881;-65
2022/06/16 09:15:43;;;;;;;;;14.60;9.60;;;;;;;;4980357;28;8836;-64
2022/06/16 09:18:22;;;;;;;;;12.00;9.80;;;;;;;;4980781;28;9400;-65
2022/06/16 09:20:49;;;;;;;;;15.60;12.60;;;;;;;;4980897;28;9087;-65
2022/06/16 09:23:19;;;;;;;;;16.80;13.40;;;;;;;;4963353;28;9482;-65
2022/06/16 09:25:52;;;;;;;;;15.80;12.20;;;;;;;;4963871;28;8755;-64
2022/06/16 09:28:37;;;;;;;;;17.20;13.20;;;;;;;;4980914;28;8776;-64
2022/06/16 09:31:05;;;;;;;;;13.00;11.60;;;;;;;;4980929;28;8799;-65
2022/06/16 09:33:34;;;;;;;;;14.60;13.40;;;;;;;;4979196;28;8789;-64
2022/06/16 09:36:11;;;;;;;;;17.40;15.40;;;;;;;;4980332;28;8857;-65
2022/06/16 09:38:58;;;;;;;;;15.60;12.80;;;;;;;;4979221;28;8847;-64
2022/06/16 09:44:27;;;;;;;;;15.60;13.40;;;;;;;;4980059;28;8885;-65
2022/06/16 09:46:55;;;;;;;;;10.20;10.00;;;;;;;;4963189;28;8837;-64
2022/06/16 09:49:23;;;;;;;;;13.20;12.20;;;;;;;;4980975;28;8786;-63
2022/06/16 09:51:55;;;;;;;;;14.40;11.80;;;;;;;;4980973;28;8858;-64
2022/06/16 09:54:51;;;;;;;;;10.00;7.00;;;;;;;;4979249;28;8783;-65
2022/06/16 09:57:19;;;;;;;;;14.80;11.40;;;;;;;;4950652;28;9428;-64
2022/06/16 09:59:53;;;;;;;;;12.00;10.00;;;;;;;;4979792;28;8819;-64
2022/06/16 10:02:24;;;;;;;;;14.20;10.60;;;;;;;;4980107;28;8775;-64
2022/06/16 10:04:51;;;;;;;;;14.80;11.60;;;;;;;;4980426;28;8821;-64
2022/06/16 10:07:21;;;;;;;;;14.20;12.40;;;;;;;;4979383;28;8779;-64
2022/06/16 10:09:50;;;;;;;;;9.20;6.80;;;;;;;;4980330;28;8905;-64
2022/06/16 10:12:32;;;;;;;;;18.60;13.60;;;;;;;;4962878;28;8793;-64
2022/06/16 10:15:11;;;;;;;;;35.25;27.25;;;;;;;;4980098;28;8775;-64
2022/06/16 10:17:37;;;;;;;;;19.80;16.60;;;;;;;;4979623;28;8925;-64
2022/06/16 10:20:04;;;;;;;;;13.00;13.00;;;;;;;;4979849;28;8810;-64
2022/06/16 10:22:31;;;;;;;;;13.20;11.60;;;;;;;;4979635;28;8744;-64
2022/06/16 10:25:00;;;;;;;;;14.40;10.20;;;;;;;;4963135;28;8768;-64
2022/06/16 10:27:31;;;;;;;;;8.40;5.60;;;;;;;;4979487;28;8799;-64
2022/06/16 10:29:58;;;;;;;;;6.20;5.80;;;;;;;;4959709;28;8789;-64
2022/06/16 10:32:38;;;;;;;;;7.40;6.20;;;;;;;;4979427;28;8786;-64
2022/06/16 10:35:05;;;;;;;;;9.40;8.20;;;;;;;;4979696;28;8772;-64
2022/06/16 10:37:32;;;;;;;;;13.00;11.20;;;;;;;;4979505;28;8838;-64
2022/06/16 10:40:06;;;;;;;;;14.60;11.60;;;;;;;;4962561;28;8826;-65
2022/06/16 10:42:42;;;;;;;;;14.20;12.20;;;;;;;;4979065;28;8869;-65
2022/06/16 10:45:10;;;;;;;;;14.80;11.20;;;;;;;;4979380;28;8756;-65
2022/06/16 10:47:40;;;;;;;;;8.20;7.60;;;;;;;;4962641;28;8767;-65
2022/06/16 10:50:08;;;;;;;;;17.80;14.60;;;;;;;;4979667;28;8818;-64
2022/06/16 10:52:39;;;;;;;;;13.00;12.20;;;;;;;;4962136;28;8764;-64
2022/06/16 10:55:12;;;;;;;;;14.60;11.40;;;;;;;;4980022;28;8756;-65
2022/06/16 10:57:46;;;;;;;;;15.40;11.80;;;;;;;;4979108;28;8783;-65
2022/06/16 11:00:16;;;;;;;;;15.00;10.80;;;;;;;;4957615;28;8905;-65
2022/06/16 11:03:11;;;;;;;;;14.00;11.80;;;;;;;;4979543;28;8806;-65
2022/06/16 11:05:57;;;;;;;;;11.60;9.80;;;;;;;;4945285;28;8799;-65
2022/06/16 11:08:26;;;;;;;;;7.00;6.60;;;;;;;;4978646;28;8803;-64
2022/06/16 11:10:54;;;;;;;;;10.20;8.00;;;;;;;;4978173;28;9440;-64
2022/06/16 11:13:28;;;;;;;;;7.20;7.00;;;;;;;;4979447;28;8771;-64
2022/06/16 11:15:54;;;;;;;;;6.20;5.20;;;;;;;;4979330;28;8767;-65
2022/06/16 11:18:22;;;;;;;;;6.20;5.40;;;;;;;;4961578;28;8802;-64
2022/06/16 11:20:50;;;;;;;;;8.00;7.00;;;;;;;;4961572;28;8871;-64
2022/06/16 11:23:19;;;;;;;;;8.00;5.40;;;;;;;;4978752;28;8842;-65
2022/06/16 11:25:46;;;;;;;;;8.00;7.00;;;;;;;;4978774;28;8774;-64
2022/06/16 11:28:14;;;;;;;;;9.20;5.40;;;;;;;;4961966;28;8830;-65
2022/06/16 11:31:00;;;;;;;;;6.80;6.00;;;;;;;;4978186;28;8795;-64
2022/06/16 11:36:31;;;;;;;;;9.00;7.20;;;;;;;;4977611;28;8775;-65
2022/06/16 11:39:12;;;;;;;;;9.00;6.20;;;;;;;;4978267;28;9463;-64
2022/06/16 11:41:39;;;;;;;;;8.80;7.00;;;;;;;;4978579;28;8934;-64
2022/06/16 11:44:29;;;;;;;;;10.00;8.60;;;;;;;;4977599;28;8775;-64
2022/06/16 11:47:14;;;;;;;;;11.20;8.60;;;;;;;;4923681;28;8764;-64
2022/06/16 11:49:51;;;;;;;;;10.20;8.00;;;;;;;;4959109;28;8768;-64
2022/06/16 11:52:25;;;;;;;;;8.80;7.80;;;;;;;;4942996;28;8778;-65
2022/06/16 11:54:59;;;;;;;;;8.80;8.00;;;;;;;;4942267;28;9458;-64
2022/06/16 11:57:46;;;;;;;;;8.40;7.40;;;;;;;;4941797;28;8869;-65
2022/06/16 12:00:20;;;;;;;;;11.40;11.40;;;;;;;;4966708;28;8826;-65
2022/06/16 12:02:46;;;;;;;;;7.20;6.00;;;;;;;;4977295;28;9974;-65
2022/06/16 12:05:33;;;;;;;;;8.60;7.00;;;;;;;;4978057;28;8767;-65
2022/06/16 12:08:02;;;;;;;;;8.00;8.00;;;;;;;;4978613;28;8794;-65
2022/06/16 12:10:29;;;;;;;;;7.80;7.20;;;;;;;;4978043;28;8767;-64
2022/06/16 12:12:55;;;;;;;;;9.60;5.00;;;;;;;;4979030;28;8807;-65
2022/06/16 12:15:25;;;;;;;;;8.80;7.80;;;;;;;;4977858;28;9506;-64
2022/06/16 12:18:04;;;;;;;;;7.60;7.20;;;;;;;;4981145;28;8938;-65
2022/06/16 12:20:33;;;;;;;;;8.00;7.20;;;;;;;;4964923;28;8799;-64
2022/06/16 12:23:03;;;;;;;;;8.20;6.00;;;;;;;;4965178;28;8767;-65
2022/06/16 12:25:31;;;;;;;;;6.40;6.20;;;;;;;;4982389;28;8802;-64
2022/06/16 12:28:17;;;;;;;;;6.20;5.40;;;;;;;;4965815;28;8778;-65
2022/06/16 12:30:52;;;;;;;;;6.60;6.40;;;;;;;;4965014;28;8842;-65
2022/06/16 12:33:21;;;;;;;;;12.60;10.20;;;;;;;;4980833;28;8783;-64
2022/06/16 12:35:52;;;;;;;;;27.60;22.00;;;;;;;;4982626;28;8905;-65
2022/06/16 12:38:22;;;;;;;;;25.60;21.80;;;;;;;;4981939;28;8775;-63
2022/06/16 12:40:50;;;;;;;;;19.80;16.40;;;;;;;;4982196;28;8799;-65
2022/06/16 12:43:36;;;;;;;;;18.20;13.60;;;;;;;;4982109;28;9429;-65
2022/06/16 12:46:08;;;;;;;;;20.20;14.20;;;;;;;;4982373;28;8795;-65
2022/06/16 12:48:53;;;;;;;;;14.60;14.60;;;;;;;;4981438;28;8885;-65
2022/06/16 12:51:21;;;;;;;;;14.80;13.00;;;;;;;;4981307;28;8756;-64
2022/06/16 12:53:49;;;;;;;;;12.00;10.80;;;;;;;;4982243;28;8789;-64
2022/06/16 12:56:35;;;;;;;;;16.20;13.40;;;;;;;;4964969;28;8850;-65
2022/06/16 12:59:03;;;;;;;;;9.20;7.40;;;;;;;;4981410;28;8740;-65
2022/06/16 13:01:30;;;;;;;;;11.20;11.20;;;;;;;;4964020;28;8858;-65
2022/06/16 13:04:00;;;;;;;;;10.00;10.00;;;;;;;;4964364;28;8850;-64
2022/06/16 13:06:27;;;;;;;;;10.80;8.40;;;;;;;;4981189;28;8929;-64
2022/06/16 13:08:58;;;;;;;;;14.40;13.00;;;;;;;;4980480;28;8866;-65
2022/06/16 13:11:29;;;;;;;;;12.80;10.20;;;;;;;;4979933;28;8787;-65
2022/06/16 13:13:57;;;;;;;;;18.40;13.20;;;;;;;;4980093;28;8890;-65
2022/06/16 13:16:26;;;;;;;;;16.60;14.60;;;;;;;;4981483;28;8768;-64
2022/06/16 13:19:00;;;;;;;;;12.00;11.80;;;;;;;;4964815;28;8756;-65
2022/06/16 13:21:31;;;;;;;;;9.00;8.40;;;;;;;;4980548;28;8849;-65
2022/06/16 13:24:02;;;;;;;;;12.40;8.00;;;;;;;;4963541;28;8810;-64
2022/06/16 13:26:31;;;;;;;;;9.20;9.20;;;;;;;;4963293;28;8792;-65
2022/06/16 13:29:02;;;;;;;;;10.40;10.40;;;;;;;;4962256;28;8965;-64
2022/06/16 13:31:50;;;;;;;;;10.40;10.20;;;;;;;;4963377;28;9366;-64
2022/06/16 13:34:19;;;;;;;;;11.60;9.80;;;;;;;;4981533;28;8728;-65
2022/06/16 13:36:46;;;;;;;;;11.40;9.80;;;;;;;;4980608;28;8803;-64
2022/06/16 13:39:32;;;;;;;;;11.20;10.00;;;;;;;;4980413;28;8802;-64
2022/06/16 13:42:02;;;;;;;;;10.60;9.00;;;;;;;;4980523;28;8770;-64
2022/06/16 13:44:29;;;;;;;;;11.60;10.20;;;;;;;;4971129;28;8846;-64
2022/06/16 13:46:59;;;;;;;;;13.00;10.60;;;;;;;;4980555;28;8814;-65
2022/06/16 13:49:25;;;;;;;;;12.60;10.00;;;;;;;;4979916;28;8763;-66
2022/06/16 13:51:52;;;;;;;;;10.60;10.20;;;;;;;;4963840;28;8802;-65
2022/06/16 13:54:19;;;;;;;;;9.40;8.40;;;;;;;;4980233;28;10209;-65
2022/06/16 13:56:46;;;;;;;;;9.40;8.80;;;;;;;;4963085;28;8795;-65
2022/06/16 13:59:31;;;;;;;;;11.40;9.80;;;;;;;;4980005;28;8776;-65
2022/06/16 14:02:02;;;;;;;;;11.80;8.60;;;;;;;;4960998;28;8804;-65
2022/06/16 14:04:28;;;;;;;;;10.80;8.80;;;;;;;;4960567;28;8868;-67
2022/06/16 14:07:02;;;;;;;;;10.80;10.00;;;;;;;;4944665;28;8746;-70
2022/06/16 14:09:33;;;;;;;;;8.80;8.00;;;;;;;;4960514;28;8785;-65
2022/06/16 14:12:00;;;;;;;;;13.00;10.00;;;;;;;;4943849;28;8785;-71
2022/06/16 14:14:27;;;;;;;;;9.60;8.60;;;;;;;;4962033;28;8786;-71
2022/06/16 14:16:57;;;;;;;;;11.00;9.00;;;;;;;;4979306;28;8838;-70
2022/06/16 14:19:34;;;;;;;;;11.60;10.40;;;;;;;;4980436;28;8854;-62
2022/06/16 14:22:01;;;;;;;;;13.20;11.20;;;;;;;;4979375;28;8740;-71
2022/06/16 14:24:28;;;;;;;;;9.60;9.60;;;;;;;;4979433;28;8814;-70
2022/06/16 14:26:54;;;;;;;;;11.00;8.20;;;;;;;;4979822;28;8751;-70
2022/06/16 14:29:22;;;;;;;;;9.40;9.40;;;;;;;;4968113;28;9561;-68
2022/06/16 14:31:56;;;;;;;;;23.20;18.00;;;;;;;;4951582;28;8766;-60
2022/06/16 14:34:29;;;;;;;;;17.40;15.00;;;;;;;;4961146;28;9486;-70
2022/06/16 14:37:01;;;;;;;;;10.60;10.20;;;;;;;;4943965;28;9427;-69
2022/06/16 14:39:30;;;;;;;;;15.40;10.80;;;;;;;;4942357;28;8773;-69
2022/06/16 14:41:58;;;;;;;;;11.80;9.00;;;;;;;;4960066;28;8773;-65
2022/06/16 14:44:26;;;;;;;;;11.80;11.80;;;;;;;;4944378;28;8785;-70
2022/06/16 14:46:58;;;;;;;;;15.00;11.20;;;;;;;;4979668;28;8752;-71
2022/06/16 14:49:32;;;;;;;;;13.20;10.00;;;;;;;;4978201;28;8901;-68
2022/06/16 14:52:00;;;;;;;;;9.60;9.60;;;;;;;;4978831;28;8767;-56
2022/06/16 14:54:39;;;;;;;;;12.40;10.00;;;;;;;;4977768;28;8799;-68
2022/06/16 14:57:06;;;;;;;;;10.80;9.20;;;;;;;;4979091;28;8788;-70
2022/06/16 14:59:37;;;;;;;;;9.80;9.40;;;;;;;;4961413;28;8898;-70
2022/06/16 15:02:05;;;;;;;;;11.80;10.20;;;;;;;;4978956;28;9157;-66
2022/06/16 15:04:32;;;;;;;;;9.20;8.00;;;;;;;;4961396;28;8787;-71
2022/06/16 15:06:59;;;;;;;;;16.00;13.00;;;;;;;;4979783;28;8756;-72
2022/06/16 15:09:46;;;;;;;;;15.20;12.00;;;;;;;;4978493;28;8801;-68
2022/06/16 15:12:13;;;;;;;;;13.80;12.20;;;;;;;;4978925;28;9138;-65
2022/06/16 15:14:41;;;;;;;;;17.20;15.60;;;;;;;;4978574;28;8788;-70
2022/06/16 15:19:54;;;;;;;;;9.80;8.20;;;;;;;;4978552;28;8764;-67
2022/06/16 15:22:28;;;;;;;;;12.40;11.00;;;;;;;;4979379;28;8743;-63
2022/06/16 15:24:59;;;;;;;;;14.20;11.00;;;;;;;;4979418;28;8748;-72
2022/06/16 15:27:33;;;;;;;;;11.80;11.40;;;;;;;;4978348;28;9452;-59
2022/06/16 15:30:00;;;;;;;;;12.60;11.40;;;;;;;;4978383;28;8760;-70
2022/06/16 15:38:31;;;;;;;;;12.80;12.00;;;;;;;;4973035;28;8800;-64
2022/06/16 15:40:57;;;;;;;;;22.40;14.60;;;;;;;;4961532;28;8803;-67
2022/06/16 15:43:24;;;;;;;;;21.00;20.00;;;;;;;;4978750;28;8774;-72
2022/06/16 15:45:55;;;;;;;;;28.50;24.50;;;;;;;;4978490;28;8858;-63
2022/06/16 15:48:22;;;;;;;;;30.50;25.50;;;;;;;;4977506;28;8878;-70
2022/06/16 15:50:49;;;;;;;;;28.00;26.25;;;;;;;;4978252;28;8847;-70
2022/06/16 15:53:20;;;;;;;;;35.50;28.75;;;;;;;;4978134;28;8783;-58
2022/06/16 15:55:47;;;;;;;;;35.25;28.50;;;;;;;;4978772;28;8790;-60
2022/06/16 15:58:16;;;;;;;;;35.50;29.50;;;;;;;;4979137;28;8867;-71
2022/06/16 16:00:42;;;;;;;;;45.50;35.75;;;;;;;;4978722;28;8803;-69
2022/06/16 16:03:11;;;;;;;;;34.75;27.25;;;;;;;;4961528;28;8798;-68
2022/06/16 16:05:42;;;;;;;;;23.50;21.75;;;;;;;;4978079;28;8787;-70
2022/06/16 16:08:10;;;;;;;;;24.50;20.25;;;;;;;;4961934;28;8886;-67
2022/06/16 16:10:36;;;;;;;;;21.75;19.00;;;;;;;;4978473;28;8768;-69
2022/06/16 16:13:04;;;;;;;;;20.40;18.40;;;;;;;;4962037;28;8784;-67
2022/06/16 16:15:32;;;;;;;;;17.40;17.20;;;;;;;;4978106;28;8830;-71
2022/06/16 16:17:59;;;;;;;;;16.40;14.80;;;;;;;;4978232;28;8859;-68
2022/06/16 16:20:27;;;;;;;;;16.80;14.60;;;;;;;;4978073;28;8824;-67
2022/06/16 16:22:58;;;;;;;;;16.20;14.80;;;;;;;;4961152;28;8796;-69
2022/06/16 16:25:43;;;;;;;;;17.60;16.80;;;;;;;;4977219;28;8872;-67
2022/06/16 16:28:15;;;;;;;;;14.40;14.40;;;;;;;;4978853;28;8807;-71
2022/06/16 16:30:42;;;;;;;;;15.20;15.20;;;;;;;;4976395;28;8813;-69
2022/06/16 16:33:09;;;;;;;;;13.80;13.60;;;;;;;;4960565;28;8791;-69
2022/06/16 16:35:36;;;;;;;;;16.80;13.80;;;;;;;;4977749;28;8784;-69